Time;durP1;ratioP1;P1;durP2;ratioP2;P2;SDS_P1;SDS_P2;PMS_P1;PMS_P2;Temp;Humidity;BMP_temperature;BMP_pressure;BME280_temperature;BME280_humidity;BME280_pressure;Samples;Min_cycle;Max_cycle;Signal;HPM_P1;HPM_P2
2024/01/17 00:00:44;;;;;;;;;28.50;24.00;;;;;0.54;76.64;100062.94;5068471;28;11550;-68
2024/01/17 00:03:10;;;;;;;;;26.00;25.50;;;;;0.55;76.73;100061.13;5055181;28;11534;-68
2024/01/17 00:05:37;;;;;;;;;28.00;25.00;;;;;0.54;76.48;100054.16;5070295;28;11559;-67
2024/01/17 00:08:04;;;;;;;;;28.75;26.25;;;;;0.50;76.70;100053.63;5072010;28;11564;-68
2024/01/17 00:10:31;;;;;;;;;27.50;25.75;;;;;0.47;77.03;100051.25;5064608;28;11565;-68
2024/01/17 00:12:57;;;;;;;;;24.25;20.75;;;;;0.46;76.77;100037.19;5068600;28;11553;-68
2024/01/17 00:15:24;;;;;;;;;29.25;28.25;;;;;0.38;77.03;100041.56;5075256;28;11582;-67
2024/01/17 00:17:50;;;;;;;;;30.50;26.25;;;;;0.38;76.72;100025.69;5074150;28;11644;-68
2024/01/17 00:20:17;;;;;;;;;32.25;30.50;;;;;0.35;76.89;100029.44;5063903;28;11545;-68
2024/01/17 00:22:44;;;;;;;;;30.75;28.50;;;;;0.35;77.03;100021.50;5061680;28;11571;-68
2024/01/17 00:25:11;;;;;;;;;28.75;27.00;;;;;0.20;77.41;100023.84;5061752;28;11527;-68
2024/01/17 00:27:38;;;;;;;;;27.25;25.00;;;;;0.29;77.41;100027.41;5051861;28;11690;-68
2024/01/17 00:30:06;;;;;;;;;30.75;28.75;;;;;0.22;77.71;100021.03;5059625;28;11569;-68
2024/01/17 00:32:34;;;;;;;;;27.50;27.50;;;;;0.24;77.56;100021.72;5059370;28;11573;-68
2024/01/17 00:35:02;;;;;;;;;28.25;28.25;;;;;0.21;77.74;100020.22;5062737;28;12298;-68
2024/01/17 00:37:29;;;;;;;;;26.25;23.25;;;;;0.24;77.68;100019.06;5070516;28;11549;-68
2024/01/17 00:39:56;;;;;;;;;29.25;27.00;;;;;0.30;77.76;100013.19;5058800;28;11574;-68
2024/01/17 00:42:23;;;;;;;;;28.75;28.75;;;;;0.35;77.55;100008.28;5058131;28;11521;-68
2024/01/17 00:44:50;;;;;;;;;39.00;35.25;;;;;0.27;77.06;99992.31;5071124;28;11549;-67
2024/01/17 00:47:17;;;;;;;;;33.50;29.75;;;;;0.19;77.65;99990.41;5073229;28;12416;-68
2024/01/17 00:49:43;;;;;;;;;34.50;28.50;;;;;0.23;77.65;99988.28;5064519;28;12233;-68
2024/01/17 00:52:10;;;;;;;;;34.75;29.75;;;;;0.25;77.44;99975.75;5067858;28;12288;-68
2024/01/17 00:54:37;;;;;;;;;38.50;31.50;;;;;0.23;77.47;99985.63;5070954;28;12340;-68
2024/01/17 00:57:05;;;;;;;;;32.00;29.25;;;;;0.07;77.48;99983.63;5068678;28;11685;-68
2024/01/17 00:59:31;;;;;;;;;36.50;30.75;;;;;0.11;77.69;99981.53;5073385;28;11569;-68
2024/01/17 01:01:58;;;;;;;;;33.75;30.25;;;;;0.16;77.97;99980.13;5065605;28;11549;-67
2024/01/17 01:04:25;;;;;;;;;30.75;29.50;;;;;0.15;77.84;99975.78;5059185;28;11638;-68
2024/01/17 01:06:51;;;;;;;;;34.50;33.25;;;;;0.18;77.62;99977.31;5062099;28;11547;-68
2024/01/17 01:09:18;;;;;;;;;30.00;27.75;;;;;0.20;77.93;99970.91;5064335;28;11562;-68
2024/01/17 01:11:45;;;;;;;;;35.50;35.50;;;;;0.18;77.96;99972.03;5072407;28;11596;-68
2024/01/17 01:14:11;;;;;;;;;45.75;38.50;;;;;0.12;78.04;99962.03;5063061;28;12381;-68
2024/01/17 01:16:38;;;;;;;;;33.00;29.75;;;;;0.19;77.86;99965.75;5065660;28;11552;-68
2024/01/17 01:19:04;;;;;;;;;30.00;28.25;;;;;0.08;78.12;99950.06;5070462;28;11542;-68
2024/01/17 01:21:31;;;;;;;;;31.25;29.00;;;;;0.10;78.10;99945.47;5073264;28;11556;-68
2024/01/17 01:23:58;;;;;;;;;41.50;34.75;;;;;0.13;78.42;99942.53;5067859;28;11529;-68
2024/01/17 01:26:24;;;;;;;;;42.75;36.50;;;;;0.06;78.26;99934.34;5065799;28;11581;-67
2024/01/17 01:28:51;;;;;;;;;36.00;31.25;;;;;0.08;78.17;99935.06;5061772;28;11575;-68
2024/01/17 01:31:18;;;;;;;;;41.50;37.75;;;;;0.01;77.95;99933.16;5060695;28;11565;-68
2024/01/17 01:33:44;;;;;;;;;41.50;36.50;;;;;-0.04;78.56;99910.63;5072993;28;12255;-68
2024/01/17 01:36:11;;;;;;;;;35.25;34.00;;;;;-0.03;78.56;99916.75;5075331;28;11551;-68
2024/01/17 01:38:38;;;;;;;;;39.75;35.00;;;;;0.00;78.46;99929.69;5060338;28;11575;-67
2024/01/17 01:41:04;;;;;;;;;32.50;30.00;;;;;0.05;78.59;99910.69;5068118;28;11561;-68
2024/01/17 01:43:31;;;;;;;;;34.75;32.75;;;;;0.12;78.57;99906.47;5073681;28;11654;-68
2024/01/17 01:46:03;;;;;;;;;41.50;38.75;;;;;0.10;78.77;99908.44;5061303;28;11585;-68
2024/01/17 01:48:31;;;;;;;;;26.25;23.50;;;;;0.16;78.26;99910.47;5067446;28;11549;-68
2024/01/17 01:50:58;;;;;;;;;34.50;32.75;;;;;0.12;78.57;99895.88;5053397;28;11537;-67
2024/01/17 01:53:27;;;;;;;;;37.00;33.00;;;;;0.05;78.32;99895.66;5067394;28;12244;-68
2024/01/17 01:55:55;;;;;;;;;35.50;30.75;;;;;0.02;78.18;99882.72;5087070;28;11579;-68
2024/01/17 01:58:22;;;;;;;;;34.50;31.25;;;;;-0.02;78.44;99882.19;5074083;28;11552;-68
2024/01/17 02:00:59;;;;;;;;;33.00;30.00;;;;;-0.03;78.38;99877.06;5067496;28;11693;-68
2024/01/17 02:03:28;;;;;;;;;32.50;28.75;;;;;0.03;78.34;99875.63;5068959;28;11551;-68
2024/01/17 02:05:55;;;;;;;;;41.50;30.75;;;;;0.05;78.65;99871.03;5068340;28;11667;-68
2024/01/17 02:08:22;;;;;;;;;34.50;32.50;;;;;0.05;78.08;99855.97;5057515;28;11573;-68
2024/01/17 02:10:49;;;;;;;;;36.00;32.75;;;;;0.03;78.09;99857.09;5054397;28;11571;-68
2024/01/17 02:13:16;;;;;;;;;39.75;36.50;;;;;-0.07;78.13;99860.66;5065111;28;12381;-68
2024/01/17 02:15:42;;;;;;;;;36.75;29.25;;;;;-0.04;78.15;99854.22;5067914;28;11595;-68
2024/01/17 02:18:09;;;;;;;;;36.50;31.00;;;;;0.03;78.03;99857.09;5076944;28;11532;-67
2024/01/17 02:20:37;;;;;;;;;33.75;32.25;;;;;0.02;77.97;99858.09;5074999;28;11552;-68
2024/01/17 02:23:23;;;;;;;;;30.50;26.75;;;;;0.00;78.33;99855.59;5056536;28;11654;-67
2024/01/17 02:25:51;;;;;;;;;40.50;35.25;;;;;0.02;78.22;99847.50;5056125;28;11603;-67
2024/01/17 02:28:18;;;;;;;;;31.50;29.00;;;;;-0.02;77.91;99847.78;5075104;28;11675;-68
2024/01/17 02:30:45;;;;;;;;;40.50;34.75;;;;;0.03;78.02;99846.50;5063868;28;11550;-68
2024/01/17 02:33:13;;;;;;;;;34.00;27.00;;;;;-0.02;77.81;99837.22;5056346;28;11588;-68
2024/01/17 02:35:40;;;;;;;;;35.50;31.25;;;;;-0.01;77.92;99832.75;5067422;28;12408;-67
2024/01/17 02:38:06;;;;;;;;;42.50;35.75;;;;;0.03;78.02;99828.00;5075554;28;11592;-67
2024/01/17 02:40:33;;;;;;;;;31.00;29.00;;;;;-0.03;78.27;99816.22;5065744;28;11553;-67
2024/01/17 02:43:00;;;;;;;;;36.50;32.25;;;;;-0.01;78.27;99811.59;5056208;28;11547;-67
2024/01/17 02:45:26;;;;;;;;;35.25;32.25;;;;;-0.03;78.08;99795.88;5064947;28;11543;-68
2024/01/17 02:47:53;;;;;;;;;39.75;30.75;;;;;0.02;78.45;99791.94;5069806;28;11564;-67
2024/01/17 02:50:20;;;;;;;;;37.75;31.50;;;;;0.00;78.11;99781.53;5069753;28;11591;-68
2024/01/17 02:52:47;;;;;;;;;41.00;35.50;;;;;-0.05;78.28;99786.41;5067008;28;11668;-67
2024/01/17 02:55:17;;;;;;;;;31.25;31.00;;;;;0.02;78.24;99778.72;5062640;28;11589;-67
2024/01/17 02:57:44;;;;;;;;;49.75;39.25;;;;;-0.01;78.28;99785.97;5063365;28;12337;-68
2024/01/17 03:00:11;;;;;;;;;33.75;31.25;;;;;0.01;78.49;99775.25;5066128;28;11565;-67
2024/01/17 03:02:38;;;;;;;;;46.00;38.00;;;;;-0.01;78.23;99774.53;5069049;28;11666;-67
2024/01/17 03:05:06;;;;;;;;;44.50;37.50;;;;;-0.08;78.17;99770.84;5063901;28;11605;-68
2024/01/17 03:07:33;;;;;;;;;42.50;35.50;;;;;-0.07;78.15;99768.06;5060492;28;11553;-67
2024/01/17 03:10:00;;;;;;;;;44.75;38.75;;;;;-0.03;78.30;99760.66;5062602;28;12249;-67
2024/01/17 03:12:27;;;;;;;;;31.00;30.25;;;;;0.05;78.66;99760.72;5060470;28;11590;-67
2024/01/17 03:14:53;;;;;;;;;44.67;38.67;;;;;0.05;78.20;99751.97;5071263;28;11516;-67
2024/01/17 03:17:20;;;;;;;;;45.50;39.00;;;;;0.01;78.15;99747.97;5053910;28;11554;-68
2024/01/17 03:19:47;;;;;;;;;40.00;36.75;;;;;-0.08;78.08;99745.25;5064646;28;11579;-67
2024/01/17 03:22:17;;;;;;;;;38.00;35.25;;;;;-0.06;78.23;99750.38;5061120;28;11585;-68
2024/01/17 03:24:46;;;;;;;;;43.50;41.50;;;;;-0.14;78.54;99756.41;5064041;28;11589;-68
2024/01/17 03:27:13;;;;;;;;;40.25;36.75;;;;;-0.15;78.41;99746.84;5077205;28;11682;-68
2024/01/17 03:29:40;;;;;;;;;48.50;42.00;;;;;-0.19;78.93;99734.06;5077555;28;11553;-67
2024/01/17 03:32:07;;;;;;;;;36.25;33.50;;;;;-0.19;78.96;99724.31;5068698;28;11593;-68
2024/01/17 03:34:34;;;;;;;;;42.75;37.00;;;;;-0.13;78.81;99720.22;5075339;28;11591;-68
2024/01/17 03:37:01;;;;;;;;;38.50;36.75;;;;;-0.17;78.42;99724.16;5059087;28;11699;-67
2024/01/17 03:39:33;;;;;;;;;39.75;33.75;;;;;-0.15;78.96;99728.31;5069738;28;11645;-67
2024/01/17 03:42:00;;;;;;;;;29.25;26.50;;;;;-0.06;78.94;99734.50;5072721;28;11555;-67
2024/01/17 03:44:27;;;;;;;;;42.00;34.75;;;;;-0.06;78.45;99723.91;5075334;28;11546;-68
2024/01/17 03:46:53;;;;;;;;;34.00;29.25;;;;;-0.05;78.54;99725.56;5087347;28;11580;-67
2024/01/17 03:49:20;;;;;;;;;37.75;35.25;;;;;-0.13;78.51;99721.03;5065692;28;11685;-68
2024/01/17 03:51:46;;;;;;;;;47.00;39.75;;;;;-0.09;78.69;99713.63;5063000;28;12372;-68
2024/01/17 03:54:13;;;;;;;;;47.25;42.00;;;;;-0.14;78.39;99706.16;5074829;28;11559;-67
2024/01/17 03:56:40;;;;;;;;;38.75;36.75;;;;;-0.10;78.75;99699.59;5067738;28;11668;-67
2024/01/17 03:59:07;;;;;;;;;46.25;38.25;;;;;-0.12;78.90;99684.84;5067500;28;11597;-68
2024/01/17 04:01:41;;;;;;;;;32.00;26.00;;;;;-0.09;78.27;99688.00;5071168;28;11545;-68
2024/01/17 04:04:08;;;;;;;;;41.25;36.75;;;;;-0.08;78.68;99692.34;5060013;28;11593;-70
2024/01/17 04:06:34;;;;;;;;;41.00;38.25;;;;;-0.02;78.33;99685.59;5070899;28;11557;-67
2024/01/17 04:09:01;;;;;;;;;46.00;41.00;;;;;-0.05;78.42;99680.59;5062859;28;12248;-68
2024/01/17 04:11:28;;;;;;;;;37.25;29.25;;;;;-0.04;78.52;99674.31;5064551;28;11558;-67
2024/01/17 04:13:55;;;;;;;;;40.00;35.25;;;;;-0.03;78.77;99671.53;5070807;28;11535;-68
2024/01/17 04:16:22;;;;;;;;;37.50;32.75;;;;;-0.06;78.60;99663.91;5065445;28;12304;-69
2024/01/17 04:18:48;;;;;;;;;34.50;32.25;;;;;-0.02;78.16;99657.31;5069475;28;11642;-68
2024/01/17 04:21:18;;;;;;;;;30.75;30.25;;;;;0.00;78.21;99649.25;5076897;28;12241;-68
2024/01/17 04:23:47;;;;;;;;;29.00;27.25;;;;;0.02;78.62;99644.63;5067907;28;11549;-67
2024/01/17 04:26:24;;;;;;;;;37.25;35.50;;;;;-0.08;77.71;99636.81;5058115;28;12273;-67
2024/01/17 04:28:52;;;;;;;;;41.50;37.25;;;;;-0.14;77.95;99626.81;5068662;28;11590;-67
2024/01/17 04:31:25;;;;;;;;;33.50;31.00;;;;;-0.13;78.50;99630.28;5066378;28;11696;-68
2024/01/17 04:33:53;;;;;;;;;38.50;33.25;;;;;-0.11;78.47;99623.06;5066743;28;11591;-68
2024/01/17 04:36:21;;;;;;;;;29.25;27.75;;;;;-0.08;78.15;99617.44;5073299;28;11560;-68
2024/01/17 04:38:48;;;;;;;;;39.25;32.25;;;;;-0.14;78.53;99607.47;5054708;28;11595;-67
2024/01/17 04:41:16;;;;;;;;;33.75;32.50;;;;;-0.17;78.22;99603.31;5070913;28;11539;-68
2024/01/17 04:43:44;;;;;;;;;36.00;30.75;;;;;-0.19;78.28;99607.13;5062782;28;11644;-68
2024/01/17 04:46:15;;;;;;;;;30.25;29.50;;;;;-0.22;78.72;99599.50;5058356;28;11560;-67
2024/01/17 04:48:43;;;;;;;;;42.50;37.50;;;;;-0.38;78.59;99602.84;5051461;28;11552;-67
2024/01/17 04:51:10;;;;;;;;;34.75;32.50;;;;;-0.37;78.70;99592.13;5068412;28;11657;-68
2024/01/17 04:53:43;;;;;;;;;32.25;30.75;;;;;-0.31;79.27;99590.69;5064641;28;11543;-66
2024/01/17 04:56:11;;;;;;;;;32.50;29.75;;;;;-0.32;78.91;99589.03;5070136;28;11623;-67
2024/01/17 04:58:39;;;;;;;;;38.25;35.25;;;;;-0.35;79.05;99586.69;5068441;28;11559;-67
2024/01/17 05:01:05;;;;;;;;;40.75;33.75;;;;;-0.35;78.75;99582.22;5062214;28;11645;-67
2024/01/17 05:03:33;;;;;;;;;39.75;36.75;;;;;-0.37;79.30;99578.91;5073794;28;11569;-67
2024/01/17 05:06:01;;;;;;;;;41.50;33.25;;;;;-0.39;79.30;99572.13;5067006;28;12266;-67
2024/01/17 05:08:29;;;;;;;;;37.50;30.50;;;;;-0.41;79.22;99571.44;5045887;28;11600;-67
2024/01/17 05:10:56;;;;;;;;;42.00;36.50;;;;;-0.42;79.08;99572.44;5067829;28;11546;-68
2024/01/17 05:13:23;;;;;;;;;42.50;29.00;;;;;-0.39;79.40;99569.47;5075367;28;11664;-68
2024/01/17 05:15:50;;;;;;;;;36.75;32.75;;;;;-0.39;79.21;99566.84;5069519;28;11572;-68
2024/01/17 05:18:16;;;;;;;;;41.75;35.50;;;;;-0.34;78.89;99562.72;5065709;28;11550;-67
2024/01/17 05:20:43;;;;;;;;;43.75;32.25;;;;;-0.29;79.15;99554.31;5072563;28;11587;-68
2024/01/17 05:23:10;;;;;;;;;33.50;32.50;;;;;-0.31;78.65;99549.22;5061788;28;11584;-68
2024/01/17 05:25:37;;;;;;;;;41.50;34.75;;;;;-0.31;78.89;99545.75;5060485;28;12362;-68
2024/01/17 05:28:06;;;;;;;;;40.50;34.00;;;;;-0.39;78.84;99543.03;5069425;28;11564;-68
2024/01/17 05:30:33;;;;;;;;;33.50;29.25;;;;;-0.43;78.42;99545.16;5083031;28;11760;-68
2024/01/17 05:33:00;;;;;;;;;32.25;28.50;;;;;-0.35;79.37;99537.28;5072177;28;11563;-68
2024/01/17 05:35:28;;;;;;;;;37.75;32.50;;;;;-0.31;78.93;99532.53;5081674;28;11571;-67
2024/01/17 05:37:55;;;;;;;;;33.25;32.50;;;;;-0.35;78.51;99523.25;5063286;28;11556;-67
2024/01/17 05:40:22;;;;;;;;;34.00;28.25;;;;;-0.29;78.23;99514.66;5071398;28;11566;-67
2024/01/17 05:42:49;;;;;;;;;37.50;32.00;;;;;-0.32;78.73;99517.66;5064891;28;12288;-67
2024/01/17 05:45:16;;;;;;;;;30.25;25.00;;;;;-0.33;78.54;99508.84;5058312;28;11528;-67
2024/01/17 05:47:43;;;;;;;;;37.25;30.00;;;;;-0.28;78.31;99501.31;5057562;28;11536;-67
2024/01/17 05:50:11;;;;;;;;;24.75;24.00;;;;;-0.32;78.56;99499.13;5069920;28;11577;-67
2024/01/17 05:52:40;;;;;;;;;31.50;28.75;;;;;-0.37;78.22;99499.59;5065092;28;11628;-68
2024/01/17 05:55:08;;;;;;;;;27.75;24.50;;;;;-0.27;78.50;99494.19;5071118;28;11632;-67
2024/01/17 05:57:36;;;;;;;;;33.75;30.25;;;;;-0.23;78.59;99487.59;5073737;28;11559;-67
2024/01/17 06:00:09;;;;;;;;;27.50;25.50;;;;;-0.25;78.48;99476.34;5063216;28;11564;-68
2024/01/17 06:02:37;;;;;;;;;24.50;23.75;;;;;-0.16;78.46;99472.78;5053340;28;11537;-68
2024/01/17 06:05:04;;;;;;;;;30.75;28.25;;;;;-0.17;78.21;99473.75;5064533;28;11541;-68
2024/01/17 06:07:31;;;;;;;;;28.50;25.75;;;;;-0.24;78.02;99459.50;5064550;28;11655;-68
2024/01/17 06:09:58;;;;;;;;;27.25;26.00;;;;;-0.27;78.19;99462.47;5069359;28;11573;-67
2024/01/17 06:12:25;;;;;;;;;31.25;26.75;;;;;-0.29;77.99;99459.97;5070899;28;11679;-67
2024/01/17 06:14:51;;;;;;;;;29.75;24.50;;;;;-0.26;78.04;99450.91;5073889;28;11531;-68
2024/01/17 06:17:18;;;;;;;;;32.75;28.50;;;;;-0.24;78.06;99451.59;5068861;28;11623;-68
2024/01/17 06:19:45;;;;;;;;;27.75;27.25;;;;;-0.25;77.97;99441.97;5067151;28;11571;-68
2024/01/17 06:22:17;;;;;;;;;43.25;36.00;;;;;-0.36;78.04;99442.28;5071418;28;11544;-67
2024/01/17 06:24:47;;;;;;;;;25.00;25.00;;;;;-0.35;78.30;99446.56;5066775;28;12257;-67
2024/01/17 06:27:14;;;;;;;;;28.00;26.25;;;;;-0.31;77.80;99445.28;5070298;28;11609;-68
2024/01/17 06:29:45;;;;;;;;;39.75;30.00;;;;;-0.28;78.10;99444.97;5074686;28;11576;-67
2024/01/17 06:32:13;;;;;;;;;23.25;21.00;;;;;-0.23;77.56;99445.31;5069300;28;11665;-67
2024/01/17 06:34:39;;;;;;;;;28.50;28.50;;;;;-0.19;78.16;99449.28;5067278;28;11553;-67
2024/01/17 06:37:06;;;;;;;;;25.50;25.50;;;;;-0.21;77.81;99443.31;5066635;28;11570;-68
2024/01/17 06:39:34;;;;;;;;;33.25;31.00;;;;;-0.25;77.39;99442.78;5063264;28;11568;-67
2024/01/17 06:42:01;;;;;;;;;33.00;29.75;;;;;-0.28;77.60;99440.50;5070459;28;11536;-68
2024/01/17 06:44:28;;;;;;;;;33.25;31.25;;;;;-0.25;77.88;99432.22;5074112;28;11626;-68
2024/01/17 06:46:55;;;;;;;;;32.75;29.25;;;;;-0.26;77.48;99430.56;5066437;28;11583;-67
2024/01/17 06:49:22;;;;;;;;;32.25;26.75;;;;;-0.24;77.65;99435.72;5086954;28;11573;-68
2024/01/17 06:51:49;;;;;;;;;31.50;30.50;;;;;-0.28;77.88;99429.09;5074504;28;11582;-68
2024/01/17 06:54:16;;;;;;;;;32.50;28.50;;;;;-0.28;78.08;99432.56;5066123;28;12256;-67
2024/01/17 06:56:43;;;;;;;;;31.75;27.00;;;;;-0.12;80.35;99433.59;5064946;28;11564;-67
2024/01/17 06:59:10;;;;;;;;;38.00;34.25;;;;;-0.12;79.10;99426.50;5063729;28;11573;-67
2024/01/17 07:01:38;;;;;;;;;29.50;27.25;;;;;-0.17;78.16;99431.44;5085867;28;11572;-67
2024/01/17 07:04:04;;;;;;;;;33.25;28.25;;;;;-0.23;77.97;99421.50;5064716;28;11544;-67
2024/01/17 07:06:31;;;;;;;;;33.75;31.50;;;;;-0.31;77.95;99416.19;5070922;28;11570;-67
2024/01/17 07:08:59;;;;;;;;;30.50;23.50;;;;;-0.33;77.93;99415.50;5065959;28;11574;-67
2024/01/17 07:11:25;;;;;;;;;30.00;29.25;;;;;-0.31;77.81;99408.25;5068255;28;11552;-67
2024/01/17 07:13:52;;;;;;;;;26.75;25.25;;;;;-0.27;77.79;99404.31;5070322;28;11617;-67
2024/01/17 07:16:19;;;;;;;;;37.50;32.50;;;;;-0.25;77.28;99399.66;5072043;28;11564;-66
2024/01/17 07:18:45;;;;;;;;;30.50;27.00;;;;;-0.25;77.78;99399.66;5088470;28;12366;-67
2024/01/17 07:21:12;;;;;;;;;31.00;26.00;;;;;-0.28;77.66;99397.38;5057193;28;11586;-67
2024/01/17 07:23:39;;;;;;;;;28.00;28.00;;;;;-0.29;77.29;99390.41;5073378;28;11593;-66
2024/01/17 07:26:06;;;;;;;;;25.75;25.75;;;;;0.15;81.04;99382.25;5073563;28;11653;-67
2024/01/17 07:28:33;;;;;;;;;34.00;32.25;;;;;0.07;78.64;99382.22;5074530;28;11552;-67
2024/01/17 07:30:59;;;;;;;;;32.75;28.00;;;;;-0.04;77.77;99383.34;5074578;28;11622;-67
2024/01/17 07:33:26;;;;;;;;;35.75;30.25;;;;;-0.14;77.62;99367.63;5074430;28;11564;-66
2024/01/17 07:35:53;;;;;;;;;40.00;35.50;;;;;-0.17;77.73;99369.78;5073829;28;11527;-67
2024/01/17 07:38:21;;;;;;;;;34.25;29.75;;;;;-0.19;77.38;99366.47;5075090;28;11637;-67
2024/01/17 07:40:48;;;;;;;;;36.50;34.50;;;;;-0.31;76.73;99364.13;5048545;28;11679;-67
2024/01/17 07:43:15;;;;;;;;;28.00;26.25;;;;;-0.31;77.33;99365.94;5053903;28;11569;-67
2024/01/17 07:45:41;;;;;;;;;28.50;27.00;;;;;-0.31;77.09;99358.00;5070305;28;11569;-67
2024/01/17 07:48:08;;;;;;;;;33.50;31.00;;;;;-0.29;77.16;99358.66;5053776;28;11547;-67
2024/01/17 07:50:34;;;;;;;;;23.75;21.50;;;;;-0.29;77.01;99356.03;5059433;28;11567;-66
2024/01/17 07:53:01;;;;;;;;;27.00;26.25;;;;;-0.32;77.13;99359.00;5088731;28;11541;-67
2024/01/17 07:55:28;;;;;;;;;32.00;28.00;;;;;-0.33;77.04;99360.81;5073446;28;11680;-67
2024/01/17 07:57:55;;;;;;;;;27.00;25.00;;;;;-0.31;77.17;99358.84;5088725;28;11623;-67
2024/01/17 08:00:22;;;;;;;;;25.50;23.50;;;;;-0.36;76.72;99355.03;5068825;28;11579;-67
2024/01/17 08:02:48;;;;;;;;;32.75;25.75;;;;;-0.40;76.57;99341.31;5051986;28;11577;-66
2024/01/17 08:05:15;;;;;;;;;24.00;21.00;;;;;-0.39;76.71;99342.13;5068922;28;11664;-66
2024/01/17 08:07:42;;;;;;;;;34.25;28.00;;;;;-0.41;76.27;99326.41;5053015;28;11553;-67
2024/01/17 08:10:09;;;;;;;;;26.75;24.25;;;;;-0.40;76.77;99330.72;5054281;28;11586;-67
2024/01/17 08:12:35;;;;;;;;;22.00;20.00;;;;;-0.38;76.44;99330.56;5051297;28;11663;-67
2024/01/17 08:15:02;;;;;;;;;27.25;24.00;;;;;-0.34;76.67;99318.66;5052524;28;11673;-67
2024/01/17 08:17:29;;;;;;;;;24.50;24.50;;;;;-0.32;76.64;99324.66;5051984;28;11536;-67
2024/01/17 08:19:58;;;;;;;;;22.00;19.50;;;;;-0.28;76.47;99323.31;5052282;28;11540;-67
2024/01/17 08:22:25;;;;;;;;;24.25;23.25;;;;;-0.26;76.61;99316.03;5051817;28;11543;-67
2024/01/17 08:24:52;;;;;;;;;28.75;25.00;;;;;-0.28;76.25;99315.41;5052205;28;11552;-67
2024/01/17 08:27:18;;;;;;;;;26.75;25.00;;;;;-0.30;76.13;99312.06;5052142;28;11557;-67
2024/01/17 08:29:46;;;;;;;;;25.50;19.00;;;;;-0.23;75.73;99309.63;5051951;28;11653;-67
2024/01/17 08:32:13;;;;;;;;;24.50;21.00;;;;;-0.20;76.06;99304.84;5070043;28;11561;-67
2024/01/17 08:34:40;;;;;;;;;26.75;20.50;;;;;-0.15;76.14;99307.00;5070418;28;11517;-67
2024/01/17 08:37:06;;;;;;;;;17.50;15.00;;;;;-0.13;76.06;99305.00;5070760;28;11604;-67
2024/01/17 08:39:33;;;;;;;;;18.00;18.00;;;;;-0.12;75.75;99304.00;5070730;28;11524;-67
2024/01/17 08:41:59;;;;;;;;;23.50;22.75;;;;;-0.10;75.71;99300.22;5054836;28;11554;-68
2024/01/17 08:44:26;;;;;;;;;22.00;21.25;;;;;-0.11;76.10;99292.44;5051841;28;11614;-67
2024/01/17 08:46:54;;;;;;;;;28.00;23.25;;;;;-0.09;75.73;99290.44;5050304;28;11541;-67
2024/01/17 08:49:21;;;;;;;;;28.50;21.25;;;;;-0.12;75.99;99277.53;5059590;28;11561;-67
2024/01/17 08:51:47;;;;;;;;;24.25;22.50;;;;;-0.11;75.46;99279.22;5071286;28;11558;-67
2024/01/17 08:54:14;;;;;;;;;27.50;26.00;;;;;-0.12;75.95;99283.69;5071361;28;11580;-67
2024/01/17 08:56:40;;;;;;;;;29.00;24.00;;;;;-0.14;75.33;99283.00;5071331;28;12293;-67
2024/01/17 08:59:07;;;;;;;;;23.00;23.00;;;;;-0.11;75.75;99282.69;5065074;28;11671;-66
2024/01/17 09:01:34;;;;;;;;;26.50;24.75;;;;;-0.12;75.13;99278.41;5054334;28;12340;-66
2024/01/17 09:04:00;;;;;;;;;20.75;18.25;;;;;-0.08;75.67;99277.09;5071078;28;11566;-69
2024/01/17 09:06:27;;;;;;;;;18.50;18.50;;;;;-0.08;75.59;99276.22;5071002;28;12252;-67
2024/01/17 09:08:53;;;;;;;;;24.75;22.50;;;;;-0.07;75.68;99269.97;5071135;28;11618;-69
2024/01/17 09:11:20;;;;;;;;;21.75;21.25;;;;;-0.05;75.64;99262.69;5068377;28;12418;-69
2024/01/17 09:13:48;;;;;;;;;26.00;18.25;;;;;-0.05;75.59;99260.84;5050277;28;11554;-69
2024/01/17 09:16:14;;;;;;;;;24.75;19.00;;;;;-0.11;75.30;99256.25;5049341;28;11541;-69
2024/01/17 09:18:41;;;;;;;;;25.25;22.00;;;;;-0.13;75.50;99247.63;5049283;28;11700;-69
2024/01/17 09:21:08;;;;;;;;;22.00;21.75;;;;;-0.15;75.05;99247.00;5048967;28;11568;-69
2024/01/17 09:23:35;;;;;;;;;19.50;17.75;;;;;-0.09;75.48;99250.78;5068102;28;11548;-69
2024/01/17 09:26:01;;;;;;;;;18.00;18.00;;;;;-0.06;75.03;99248.63;5069212;28;11685;-69
2024/01/17 09:28:31;;;;;;;;;28.75;23.75;;;;;-0.08;74.98;99244.50;5070675;28;11516;-67
2024/01/17 09:30:58;;;;;;;;;23.50;21.75;;;;;-0.12;75.31;99248.47;5070432;28;11562;-67
2024/01/17 09:33:25;;;;;;;;;21.75;21.75;;;;;-0.11;75.10;99250.13;5052690;28;11554;-67
2024/01/17 09:35:52;;;;;;;;;16.25;16.25;;;;;-0.17;75.12;99246.31;5050432;28;11530;-67
2024/01/17 09:38:28;;;;;;;;;26.50;19.50;;;;;-0.11;75.25;99250.13;5050279;28;12374;-67
2024/01/17 09:40:55;;;;;;;;;23.50;20.25;;;;;-0.06;75.46;99243.34;5032053;28;11559;-67
2024/01/17 09:43:23;;;;;;;;;22.75;21.50;;;;;-0.02;75.32;99238.56;5065075;28;11659;-67
2024/01/17 09:45:51;;;;;;;;;25.25;21.75;;;;;-0.02;75.21;99244.66;5068810;28;11618;-67
2024/01/17 09:48:18;;;;;;;;;22.75;20.25;;;;;-0.03;74.78;99240.38;5070057;28;11533;-67
2024/01/17 09:50:46;;;;;;;;;23.25;18.75;;;;;-0.01;75.17;99234.91;5068876;28;11564;-67
2024/01/17 09:53:13;;;;;;;;;23.50;21.50;;;;;0.02;74.72;99236.41;5054223;28;12431;-67
2024/01/17 09:55:41;;;;;;;;;21.00;19.25;;;;;0.08;75.36;99233.94;5050220;28;11556;-67
2024/01/17 09:58:09;;;;;;;;;22.00;21.50;;;;;0.05;74.68;99234.25;5050095;28;11636;-67
2024/01/17 10:00:36;;;;;;;;;20.50;17.50;;;;;0.03;74.56;99230.13;5049989;28;11572;-67
2024/01/17 10:03:04;;;;;;;;;27.50;21.75;;;;;0.06;74.82;99229.78;5062225;28;11633;-68
2024/01/17 10:05:34;;;;;;;;;24.00;17.25;;;;;0.12;75.22;99232.59;5067194;28;11574;-70
2024/01/17 10:08:03;;;;;;;;;22.75;21.25;;;;;0.40;78.47;99218.97;5064046;28;11534;-68
2024/01/17 10:10:30;;;;;;;;;18.00;17.75;;;;;0.43;75.49;99221.31;5064147;28;11542;-67
2024/01/17 10:12:57;;;;;;;;;29.75;23.50;;;;;0.37;75.05;99219.34;5065121;28;11537;-67
2024/01/17 10:15:24;;;;;;;;;24.50;21.00;;;;;0.27;74.93;99210.75;5060029;28;11625;-67
2024/01/17 10:17:51;;;;;;;;;22.00;20.50;;;;;0.28;74.52;99218.50;5069637;28;11540;-68
2024/01/17 10:20:22;;;;;;;;;18.25;16.00;;;;;0.30;74.43;99211.25;5054987;28;11550;-68
2024/01/17 10:22:48;;;;;;;;;23.00;21.25;;;;;0.27;74.44;99206.28;5073072;28;11509;-68
2024/01/17 10:25:16;;;;;;;;;22.25;18.75;;;;;0.32;74.37;99211.88;5077964;28;12283;-68
2024/01/17 10:27:47;;;;;;;;;19.00;18.75;;;;;0.34;73.91;99194.03;5071629;28;11508;-68
2024/01/17 10:30:14;;;;;;;;;15.50;15.50;;;;;0.39;74.23;99204.94;5062007;28;11615;-68
2024/01/17 10:32:41;;;;;;;;;20.00;20.00;;;;;0.36;74.02;99199.97;5071151;28;11587;-68
2024/01/17 10:35:09;;;;;;;;;21.25;19.25;;;;;0.38;73.35;99197.16;5063024;28;11616;-68
2024/01/17 10:37:37;;;;;;;;;23.50;19.75;;;;;0.36;73.35;99186.72;5064534;28;11536;-68
2024/01/17 10:40:11;;;;;;;;;23.00;17.00;;;;;0.42;73.48;99182.59;5067438;28;11553;-68
2024/01/17 10:42:40;;;;;;;;;19.25;19.00;;;;;0.48;73.61;99187.19;5063142;28;11643;-68
2024/01/17 10:45:18;;;;;;;;;15.50;13.75;;;;;0.49;73.14;99184.41;5067569;28;11518;-68
2024/01/17 10:47:45;;;;;;;;;23.25;19.75;;;;;0.51;72.95;99178.91;5071859;28;11537;-68
2024/01/17 10:50:12;;;;;;;;;27.25;26.50;;;;;0.46;73.17;99173.31;5072236;28;11531;-68
2024/01/17 10:52:43;;;;;;;;;25.75;23.25;;;;;0.45;73.61;99172.50;5062526;28;11554;-68
2024/01/17 10:55:14;;;;;;;;;25.25;22.75;;;;;0.40;73.24;99168.69;5077656;28;11631;-68
2024/01/17 10:57:42;;;;;;;;;23.25;19.00;;;;;0.42;73.25;99167.53;5064528;28;11539;-68
2024/01/17 11:00:15;;;;;;;;;24.00;21.75;;;;;0.46;73.57;99166.19;5069237;28;11660;-68
2024/01/17 11:02:46;;;;;;;;;26.75;24.75;;;;;0.46;73.35;99157.44;5070193;28;11634;-68
2024/01/17 11:05:20;;;;;;;;;23.00;21.75;;;;;0.42;72.93;99156.94;5077169;28;11565;-68
2024/01/17 11:07:48;;;;;;;;;22.25;20.50;;;;;0.43;73.28;99157.78;5058670;28;11540;-68
2024/01/17 11:10:15;;;;;;;;;25.00;23.50;;;;;0.45;72.98;99158.44;5061436;28;11555;-68
2024/01/17 11:12:42;;;;;;;;;24.25;20.50;;;;;0.47;72.91;99153.78;5047342;28;11554;-68
2024/01/17 11:15:11;;;;;;;;;24.75;22.00;;;;;0.47;72.68;99146.66;5053964;28;11636;-68
2024/01/17 11:17:39;;;;;;;;;25.25;22.50;;;;;0.48;72.72;99145.66;5052613;28;11566;-68
2024/01/17 11:20:10;;;;;;;;;19.00;18.25;;;;;1.31;84.54;99133.66;5062034;28;11584;-69